sensor_id;sensor_type;location;lat;lon;timestamp;temperature;humidity
45715;DHT22;31430;61.646;24.704;2022-12-18T00:01:25;-2.20;99.90
45715;DHT22;31430;61.646;24.704;2022-12-18T00:03:51;-2.10;99.90
45715;DHT22;31430;61.646;24.704;2022-12-18T00:06:17;-2.10;99.90
45715;DHT22;31430;61.646;24.704;2022-12-18T00:08:43;-2.10;99.90
45715;DHT22;31430;61.646;24.704;2022-12-18T00:11:12;-2.00;99.90
45715;DHT22;31430;61.646;24.704;2022-12-18T00:13:38;-2.00;99.90
45715;DHT22;31430;61.646;24.704;2022-12-18T00:16:07;-2.00;99.90
45715;DHT22;31430;61.646;24.704;2022-12-18T00:18:34;-2.00;99.90
45715;DHT22;31430;61.646;24.704;2022-12-18T00:21:04;-2.00;99.90
45715;DHT22;31430;61.646;24.704;2022-12-18T00:23:31;-1.90;99.90
45715;DHT22;31430;61.646;24.704;2022-12-18T00:26:05;-2.00;99.90
45715;DHT22;31430;61.646;24.704;2022-12-18T00:28:31;-1.90;99.90
45715;DHT22;31430;61.646;24.704;2022-12-18T00:31:16;-1.90;99.90
45715;DHT22;31430;61.646;24.704;2022-12-18T00:33:42;-1.90;99.90
45715;DHT22;31430;61.646;24.704;2022-12-18T00:36:16;-1.90;99.90
45715;DHT22;31430;61.646;24.704;2022-12-18T00:38:43;-1.90;99.90
45715;DHT22;31430;61.646;24.704;2022-12-18T00:41:10;-1.90;99.90
45715;DHT22;31430;61.646;24.704;2022-12-18T00:43:37;-1.90;99.90
45715;DHT22;31430;61.646;24.704;2022-12-18T00:46:03;-1.80;99.90
45715;DHT22;31430;61.646;24.704;2022-12-18T00:48:29;-1.80;99.90
45715;DHT22;31430;61.646;24.704;2022-12-18T00:50:55;-1.80;99.90
45715;DHT22;31430;61.646;24.704;2022-12-18T00:53:20;-1.80;99.90
45715;DHT22;31430;61.646;24.704;2022-12-18T00:55:47;-1.80;99.90
45715;DHT22;31430;61.646;24.704;2022-12-18T00:58:14;-1.80;99.90
45715;DHT22;31430;61.646;24.704;2022-12-18T01:00:40;-1.80;99.90
45715;DHT22;31430;61.646;24.704;2022-12-18T01:03:06;-1.80;99.90
45715;DHT22;31430;61.646;24.704;2022-12-18T01:05:32;-1.70;99.90
45715;DHT22;31430;61.646;24.704;2022-12-18T01:07:58;-1.70;99.90
45715;DHT22;31430;61.646;24.704;2022-12-18T01:10:24;-1.70;99.90
45715;DHT22;31430;61.646;24.704;2022-12-18T01:12:50;-1.70;99.90
45715;DHT22;31430;61.646;24.704;2022-12-18T01:15:16;-1.70;99.90
45715;DHT22;31430;61.646;24.704;2022-12-18T01:17:42;-1.70;99.90
45715;DHT22;31430;61.646;24.704;2022-12-18T01:20:10;-1.70;99.90
45715;DHT22;31430;61.646;24.704;2022-12-18T01:22:36;-1.70;99.90
45715;DHT22;31430;61.646;24.704;2022-12-18T01:25:02;-1.70;99.90
45715;DHT22;31430;61.646;24.704;2022-12-18T01:27:29;-1.70;99.90
45715;DHT22;31430;61.646;24.704;2022-12-18T01:29:55;-1.60;99.90
45715;DHT22;31430;61.646;24.704;2022-12-18T01:32:21;-1.60;99.90
45715;DHT22;31430;61.646;24.704;2022-12-18T01:34:47;-1.60;99.90
45715;DHT22;31430;61.646;24.704;2022-12-18T01:37:13;-1.60;99.90
45715;DHT22;31430;61.646;24.704;2022-12-18T01:39:38;-1.60;99.90
45715;DHT22;31430;61.646;24.704;2022-12-18T01:42:11;-1.60;99.90
45715;DHT22;31430;61.646;24.704;2022-12-18T01:45:05;-1.50;99.90
45715;DHT22;31430;61.646;24.704;2022-12-18T01:47:47;-1.50;99.90
45715;DHT22;31430;61.646;24.704;2022-12-18T01:52:56;-1.50;99.90
45715;DHT22;31430;61.646;24.704;2022-12-18T01:55:25;-1.50;99.90
45715;DHT22;31430;61.646;24.704;2022-12-18T01:57:57;-1.40;99.90
45715;DHT22;31430;61.646;24.704;2022-12-18T02:00:25;-1.40;99.90
45715;DHT22;31430;61.646;24.704;2022-12-18T02:02:52;-1.40;99.90
45715;DHT22;31430;61.646;24.704;2022-12-18T02:16:29;-1.30;99.90
45715;DHT22;31430;61.646;24.704;2022-12-18T02:19:01;-1.30;99.90
45715;DHT22;31430;61.646;24.704;2022-12-18T02:27:24;-1.20;99.90
45715;DHT22;31430;61.646;24.704;2022-12-18T02:29:53;-1.20;99.90
45715;DHT22;31430;61.646;24.704;2022-12-18T02:32:30;-1.20;99.90
45715;DHT22;31430;61.646;24.704;2022-12-18T02:34:59;-1.20;99.90
45715;DHT22;31430;61.646;24.704;2022-12-18T02:37:27;-1.20;99.90
45715;DHT22;31430;61.646;24.704;2022-12-18T02:39:55;-1.20;99.90
45715;DHT22;31430;61.646;24.704;2022-12-18T02:42:22;-1.10;99.90
45715;DHT22;31430;61.646;24.704;2022-12-18T02:44:50;-1.10;99.90
45715;DHT22;31430;61.646;24.704;2022-12-18T02:47:19;-1.10;99.90
45715;DHT22;31430;61.646;24.704;2022-12-18T02:53:09;-1.10;99.90
45715;DHT22;31430;61.646;24.704;2022-12-18T02:58:05;-1.10;99.90
45715;DHT22;31430;61.646;24.704;2022-12-18T03:00:51;-1.10;99.90
45715;DHT22;31430;61.646;24.704;2022-12-18T03:03:25;-1.00;99.90
45715;DHT22;31430;61.646;24.704;2022-12-18T03:05:58;-1.00;99.90
45715;DHT22;31430;61.646;24.704;2022-12-18T03:08:28;-1.00;99.90
45715;DHT22;31430;61.646;24.704;2022-12-18T03:15:59;-0.90;99.90
45715;DHT22;31430;61.646;24.704;2022-12-18T03:18:39;-0.80;99.90
45715;DHT22;31430;61.646;24.704;2022-12-18T03:21:08;-0.80;99.90
45715;DHT22;31430;61.646;24.704;2022-12-18T03:23:39;-0.90;99.90
45715;DHT22;31430;61.646;24.704;2022-12-18T03:26:09;-0.80;99.90
45715;DHT22;31430;61.646;24.704;2022-12-18T03:28:39;-0.80;99.90
45715;DHT22;31430;61.646;24.704;2022-12-18T03:31:09;-0.80;99.90
45715;DHT22;31430;61.646;24.704;2022-12-18T03:33:53;-0.80;99.90
45715;DHT22;31430;61.646;24.704;2022-12-18T03:36:18;-0.70;99.90
45715;DHT22;31430;61.646;24.704;2022-12-18T03:38:44;-0.70;99.90
45715;DHT22;31430;61.646;24.704;2022-12-18T03:47:14;-0.60;99.90
45715;DHT22;31430;61.646;24.704;2022-12-18T03:50:03;-0.70;99.90
45715;DHT22;31430;61.646;24.704;2022-12-18T03:53:00;-0.60;99.90
45715;DHT22;31430;61.646;24.704;2022-12-18T03:55:32;-0.60;99.90
45715;DHT22;31430;61.646;24.704;2022-12-18T03:58:00;-0.60;99.90
45715;DHT22;31430;61.646;24.704;2022-12-18T04:00:28;-0.60;99.90
45715;DHT22;31430;61.646;24.704;2022-12-18T04:02:56;-0.50;99.90
45715;DHT22;31430;61.646;24.704;2022-12-18T04:05:24;-0.50;99.90
45715;DHT22;31430;61.646;24.704;2022-12-18T04:07:51;-0.50;99.90
45715;DHT22;31430;61.646;24.704;2022-12-18T04:10:18;-0.40;99.90
45715;DHT22;31430;61.646;24.704;2022-12-18T04:12:44;-0.40;99.90
45715;DHT22;31430;61.646;24.704;2022-12-18T04:15:11;-0.30;99.90
45715;DHT22;31430;61.646;24.704;2022-12-18T04:17:37;-0.30;99.90
45715;DHT22;31430;61.646;24.704;2022-12-18T04:20:04;-0.30;99.90
45715;DHT22;31430;61.646;24.704;2022-12-18T04:22:30;-0.30;99.90
45715;DHT22;31430;61.646;24.704;2022-12-18T04:24:55;-0.30;99.90
45715;DHT22;31430;61.646;24.704;2022-12-18T04:27:21;-0.30;99.90
45715;DHT22;31430;61.646;24.704;2022-12-18T04:29:46;-0.30;99.90
45715;DHT22;31430;61.646;24.704;2022-12-18T04:32:12;-0.30;99.90
45715;DHT22;31430;61.646;24.704;2022-12-18T04:34:37;-0.20;99.90
45715;DHT22;31430;61.646;24.704;2022-12-18T04:37:03;-0.20;99.90
45715;DHT22;31430;61.646;24.704;2022-12-18T04:39:29;-0.20;99.90
45715;DHT22;31430;61.646;24.704;2022-12-18T04:41:55;-0.20;99.90
45715;DHT22;31430;61.646;24.704;2022-12-18T04:44:20;-0.20;99.90
45715;DHT22;31430;61.646;24.704;2022-12-18T04:46:46;-0.20;99.90
45715;DHT22;31430;61.646;24.704;2022-12-18T04:49:12;-0.20;99.90
45715;DHT22;31430;61.646;24.704;2022-12-18T04:51:38;-0.20;99.90
45715;DHT22;31430;61.646;24.704;2022-12-18T04:54:03;-0.20;99.90
45715;DHT22;31430;61.646;24.704;2022-12-18T04:56:30;-0.20;99.90
45715;DHT22;31430;61.646;24.704;2022-12-18T04:58:55;-0.30;99.90
45715;DHT22;31430;61.646;24.704;2022-12-18T05:01:21;-0.30;99.90
45715;DHT22;31430;61.646;24.704;2022-12-18T05:03:47;-0.30;99.90
45715;DHT22;31430;61.646;24.704;2022-12-18T05:06:12;-0.30;99.90
45715;DHT22;31430;61.646;24.704;2022-12-18T05:08:38;-0.30;99.90
45715;DHT22;31430;61.646;24.704;2022-12-18T05:11:11;-0.30;99.90
45715;DHT22;31430;61.646;24.704;2022-12-18T05:13:37;-0.30;99.90
45715;DHT22;31430;61.646;24.704;2022-12-18T05:16:03;-0.30;99.90
45715;DHT22;31430;61.646;24.704;2022-12-18T05:18:29;-0.30;99.90
45715;DHT22;31430;61.646;24.704;2022-12-18T05:20:55;-0.30;99.90
45715;DHT22;31430;61.646;24.704;2022-12-18T05:23:21;-0.30;99.90
45715;DHT22;31430;61.646;24.704;2022-12-18T05:26:15;-0.30;99.90
45715;DHT22;31430;61.646;24.704;2022-12-18T05:28:41;-0.30;99.90
45715;DHT22;31430;61.646;24.704;2022-12-18T05:31:06;-0.40;99.90
45715;DHT22;31430;61.646;24.704;2022-12-18T05:33:33;-0.40;99.90
45715;DHT22;31430;61.646;24.704;2022-12-18T05:36:01;-0.40;99.90
45715;DHT22;31430;61.646;24.704;2022-12-18T05:38:28;-0.40;99.90
45715;DHT22;31430;61.646;24.704;2022-12-18T05:40:54;-0.40;99.90
45715;DHT22;31430;61.646;24.704;2022-12-18T05:43:22;-0.40;99.90
45715;DHT22;31430;61.646;24.704;2022-12-18T05:45:48;-0.40;99.90
45715;DHT22;31430;61.646;24.704;2022-12-18T05:48:15;-0.30;99.90
45715;DHT22;31430;61.646;24.704;2022-12-18T05:50:42;-0.30;99.90
45715;DHT22;31430;61.646;24.704;2022-12-18T05:53:11;-0.30;99.90
45715;DHT22;31430;61.646;24.704;2022-12-18T05:55:39;-0.30;99.90
45715;DHT22;31430;61.646;24.704;2022-12-18T05:58:07;-0.30;99.90
45715;DHT22;31430;61.646;24.704;2022-12-18T06:00:34;-0.20;99.90
45715;DHT22;31430;61.646;24.704;2022-12-18T06:03:00;-0.20;99.90
45715;DHT22;31430;61.646;24.704;2022-12-18T06:05:27;-0.20;99.90
45715;DHT22;31430;61.646;24.704;2022-12-18T06:07:53;-0.20;99.90
45715;DHT22;31430;61.646;24.704;2022-12-18T06:10:18;-0.20;99.90
45715;DHT22;31430;61.646;24.704;2022-12-18T06:12:44;-0.30;99.90
45715;DHT22;31430;61.646;24.704;2022-12-18T06:15:09;-0.20;99.90
45715;DHT22;31430;61.646;24.704;2022-12-18T06:17:36;-0.30;99.90
45715;DHT22;31430;61.646;24.704;2022-12-18T06:20:02;-0.40;99.90
45715;DHT22;31430;61.646;24.704;2022-12-18T06:22:31;-0.30;99.90
45715;DHT22;31430;61.646;24.704;2022-12-18T06:24:57;-0.30;99.90
45715;DHT22;31430;61.646;24.704;2022-12-18T06:27:22;-0.30;99.90
45715;DHT22;31430;61.646;24.704;2022-12-18T06:29:48;-0.30;99.90
45715;DHT22;31430;61.646;24.704;2022-12-18T06:32:14;-0.30;99.90
45715;DHT22;31430;61.646;24.704;2022-12-18T06:34:39;-0.30;99.90
45715;DHT22;31430;61.646;24.704;2022-12-18T06:37:05;-0.30;99.90
45715;DHT22;31430;61.646;24.704;2022-12-18T06:39:30;-0.30;99.90
45715;DHT22;31430;61.646;24.704;2022-12-18T06:41:56;-0.30;99.90
45715;DHT22;31430;61.646;24.704;2022-12-18T06:44:22;-0.30;99.90
45715;DHT22;31430;61.646;24.704;2022-12-18T06:46:47;-0.30;99.90
45715;DHT22;31430;61.646;24.704;2022-12-18T06:49:13;-0.30;99.90
45715;DHT22;31430;61.646;24.704;2022-12-18T06:51:39;-0.30;99.90
45715;DHT22;31430;61.646;24.704;2022-12-18T06:54:05;-0.40;99.90
45715;DHT22;31430;61.646;24.704;2022-12-18T06:56:30;-0.40;99.90
45715;DHT22;31430;61.646;24.704;2022-12-18T06:58:56;-0.30;99.90
45715;DHT22;31430;61.646;24.704;2022-12-18T07:01:21;-0.40;99.90
45715;DHT22;31430;61.646;24.704;2022-12-18T07:03:52;-0.40;99.90
45715;DHT22;31430;61.646;24.704;2022-12-18T07:06:19;-0.40;99.90
45715;DHT22;31430;61.646;24.704;2022-12-18T07:08:46;-0.40;99.90
45715;DHT22;31430;61.646;24.704;2022-12-18T07:11:12;-0.40;99.90
45715;DHT22;31430;61.646;24.704;2022-12-18T07:13:38;-0.40;99.90
45715;DHT22;31430;61.646;24.704;2022-12-18T07:16:08;-0.30;99.90
45715;DHT22;31430;61.646;24.704;2022-12-18T07:18:34;-0.30;99.90
45715;DHT22;31430;61.646;24.704;2022-12-18T07:21:04;-0.40;99.90
45715;DHT22;31430;61.646;24.704;2022-12-18T07:23:31;-0.30;99.90
45715;DHT22;31430;61.646;24.704;2022-12-18T07:26:01;-0.30;99.90
45715;DHT22;31430;61.646;24.704;2022-12-18T07:28:27;-0.30;99.90
45715;DHT22;31430;61.646;24.704;2022-12-18T07:31:02;-0.30;99.90
45715;DHT22;31430;61.646;24.704;2022-12-18T07:33:28;-0.30;99.90
45715;DHT22;31430;61.646;24.704;2022-12-18T07:35:54;-0.30;99.90
45715;DHT22;31430;61.646;24.704;2022-12-18T07:38:21;-0.30;99.90
45715;DHT22;31430;61.646;24.704;2022-12-18T07:40:47;-0.30;99.90
45715;DHT22;31430;61.646;24.704;2022-12-18T07:43:12;-0.30;99.90
45715;DHT22;31430;61.646;24.704;2022-12-18T07:45:38;-0.30;99.90
45715;DHT22;31430;61.646;24.704;2022-12-18T07:48:04;-0.20;99.90
45715;DHT22;31430;61.646;24.704;2022-12-18T07:50:29;-0.30;99.90
45715;DHT22;31430;61.646;24.704;2022-12-18T07:52:55;-0.30;99.90
45715;DHT22;31430;61.646;24.704;2022-12-18T07:55:20;-0.20;99.90
45715;DHT22;31430;61.646;24.704;2022-12-18T07:57:46;-0.30;99.90
45715;DHT22;31430;61.646;24.704;2022-12-18T08:00:12;-0.30;99.90
45715;DHT22;31430;61.646;24.704;2022-12-18T08:02:38;-0.30;99.90
45715;DHT22;31430;61.646;24.704;2022-12-18T08:05:04;-0.30;99.90
45715;DHT22;31430;61.646;24.704;2022-12-18T08:07:30;-0.30;99.90
45715;DHT22;31430;61.646;24.704;2022-12-18T08:09:55;-0.30;99.90
45715;DHT22;31430;61.646;24.704;2022-12-18T08:12:21;-0.30;99.90
45715;DHT22;31430;61.646;24.704;2022-12-18T08:14:46;-0.30;99.90
45715;DHT22;31430;61.646;24.704;2022-12-18T08:17:12;-0.30;99.90
45715;DHT22;31430;61.646;24.704;2022-12-18T08:19:38;-0.30;99.90
45715;DHT22;31430;61.646;24.704;2022-12-18T08:22:03;-0.30;99.90
45715;DHT22;31430;61.646;24.704;2022-12-18T08:24:29;-0.30;99.90
45715;DHT22;31430;61.646;24.704;2022-12-18T08:26:54;-0.30;99.90
45715;DHT22;31430;61.646;24.704;2022-12-18T08:29:22;-0.30;99.90
45715;DHT22;31430;61.646;24.704;2022-12-18T08:31:48;-0.30;99.90
45715;DHT22;31430;61.646;24.704;2022-12-18T08:34:13;-0.30;99.90
45715;DHT22;31430;61.646;24.704;2022-12-18T08:36:40;-0.20;99.90
45715;DHT22;31430;61.646;24.704;2022-12-18T08:39:05;-0.30;99.90
45715;DHT22;31430;61.646;24.704;2022-12-18T08:41:31;-0.20;99.90
45715;DHT22;31430;61.646;24.704;2022-12-18T08:43:56;-0.20;99.90
45715;DHT22;31430;61.646;24.704;2022-12-18T08:46:42;-0.20;99.90
45715;DHT22;31430;61.646;24.704;2022-12-18T08:49:10;-0.20;99.90
45715;DHT22;31430;61.646;24.704;2022-12-18T08:51:36;-0.20;99.90
45715;DHT22;31430;61.646;24.704;2022-12-18T08:54:02;-0.30;99.90
45715;DHT22;31430;61.646;24.704;2022-12-18T08:56:29;-0.30;99.90
45715;DHT22;31430;61.646;24.704;2022-12-18T08:58:56;-0.20;99.90
45715;DHT22;31430;61.646;24.704;2022-12-18T09:01:22;-0.20;99.90
45715;DHT22;31430;61.646;24.704;2022-12-18T09:03:49;-0.20;99.90
45715;DHT22;31430;61.646;24.704;2022-12-18T09:06:19;-0.30;99.90
45715;DHT22;31430;61.646;24.704;2022-12-18T09:08:45;-0.20;99.90
45715;DHT22;31430;61.646;24.704;2022-12-18T09:11:12;-0.30;99.90
45715;DHT22;31430;61.646;24.704;2022-12-18T09:13:38;-0.30;99.90
45715;DHT22;31430;61.646;24.704;2022-12-18T09:16:04;-0.30;99.90
45715;DHT22;31430;61.646;24.704;2022-12-18T09:18:30;-0.30;99.90
45715;DHT22;31430;61.646;24.704;2022-12-18T09:20:55;-0.30;99.90
45715;DHT22;31430;61.646;24.704;2022-12-18T09:23:21;-0.30;99.90
45715;DHT22;31430;61.646;24.704;2022-12-18T09:25:47;-0.30;99.90
45715;DHT22;31430;61.646;24.704;2022-12-18T09:28:14;-0.30;99.90
45715;DHT22;31430;61.646;24.704;2022-12-18T09:30:45;-0.20;99.90
45715;DHT22;31430;61.646;24.704;2022-12-18T09:33:11;-0.20;99.90
45715;DHT22;31430;61.646;24.704;2022-12-18T09:35:37;-0.20;99.90
45715;DHT22;31430;61.646;24.704;2022-12-18T09:38:02;-0.30;99.90
45715;DHT22;31430;61.646;24.704;2022-12-18T09:40:28;-0.30;99.90
45715;DHT22;31430;61.646;24.704;2022-12-18T09:43:00;-0.30;99.90
45715;DHT22;31430;61.646;24.704;2022-12-18T09:45:32;-0.20;99.90
45715;DHT22;31430;61.646;24.704;2022-12-18T09:48:00;-0.20;99.90
45715;DHT22;31430;61.646;24.704;2022-12-18T09:50:32;-0.30;99.90
45715;DHT22;31430;61.646;24.704;2022-12-18T09:53:02;-0.30;99.90
45715;DHT22;31430;61.646;24.704;2022-12-18T09:55:35;-0.40;99.90
45715;DHT22;31430;61.646;24.704;2022-12-18T10:01:18;-0.30;99.90
45715;DHT22;31430;61.646;24.704;2022-12-18T10:03:46;-0.30;99.90
45715;DHT22;31430;61.646;24.704;2022-12-18T10:06:13;-0.30;99.90
45715;DHT22;31430;61.646;24.704;2022-12-18T10:08:54;-0.30;99.90
45715;DHT22;31430;61.646;24.704;2022-12-18T10:14:34;-0.30;99.90
45715;DHT22;31430;61.646;24.704;2022-12-18T10:20:05;-0.30;99.90
45715;DHT22;31430;61.646;24.704;2022-12-18T10:25:36;-0.40;99.90
45715;DHT22;31430;61.646;24.704;2022-12-18T10:28:13;-0.40;99.90
45715;DHT22;31430;61.646;24.704;2022-12-18T10:30:40;-0.40;99.90
45715;DHT22;31430;61.646;24.704;2022-12-18T10:33:13;-0.40;99.90
45715;DHT22;31430;61.646;24.704;2022-12-18T10:35:42;-0.40;99.90
45715;DHT22;31430;61.646;24.704;2022-12-18T10:41:05;-0.30;99.90
45715;DHT22;31430;61.646;24.704;2022-12-18T10:43:36;-0.40;99.90
45715;DHT22;31430;61.646;24.704;2022-12-18T10:46:12;-0.40;99.90
45715;DHT22;31430;61.646;24.704;2022-12-18T10:48:55;-0.40;99.90
45715;DHT22;31430;61.646;24.704;2022-12-18T10:51:33;-0.50;99.90
45715;DHT22;31430;61.646;24.704;2022-12-18T10:54:15;-0.50;99.90
45715;DHT22;31430;61.646;24.704;2022-12-18T10:56:42;-0.50;99.90
45715;DHT22;31430;61.646;24.704;2022-12-18T10:59:10;-0.40;99.90
45715;DHT22;31430;61.646;24.704;2022-12-18T11:01:57;-0.50;99.90
45715;DHT22;31430;61.646;24.704;2022-12-18T11:04:30;-0.50;99.90
45715;DHT22;31430;61.646;24.704;2022-12-18T11:11:59;-0.50;99.90
45715;DHT22;31430;61.646;24.704;2022-12-18T11:14:49;-0.40;99.90
45715;DHT22;31430;61.646;24.704;2022-12-18T11:19:57;-0.40;99.90
45715;DHT22;31430;61.646;24.704;2022-12-18T11:22:34;-0.50;99.90
45715;DHT22;31430;61.646;24.704;2022-12-18T11:25:18;-0.50;99.90
45715;DHT22;31430;61.646;24.704;2022-12-18T11:28:02;-0.50;99.90
45715;DHT22;31430;61.646;24.704;2022-12-18T11:30:36;-0.50;99.90
45715;DHT22;31430;61.646;24.704;2022-12-18T11:33:12;-0.50;99.90
45715;DHT22;31430;61.646;24.704;2022-12-18T11:35:49;-0.50;99.90
45715;DHT22;31430;61.646;24.704;2022-12-18T11:38:26;-0.50;99.90
45715;DHT22;31430;61.646;24.704;2022-12-18T11:46:37;-0.50;99.90
45715;DHT22;31430;61.646;24.704;2022-12-18T11:49:14;-0.60;99.90
45715;DHT22;31430;61.646;24.704;2022-12-18T11:51:55;-0.60;99.90
45715;DHT22;31430;61.646;24.704;2022-12-18T11:54:24;-0.60;99.90
45715;DHT22;31430;61.646;24.704;2022-12-18T12:01:59;-0.60;99.90
45715;DHT22;31430;61.646;24.704;2022-12-18T12:07:26;-0.60;99.90
45715;DHT22;31430;61.646;24.704;2022-12-18T12:18:32;-0.40;99.90
45715;DHT22;31430;61.646;24.704;2022-12-18T12:21:40;-0.30;99.90
45715;DHT22;31430;61.646;24.704;2022-12-18T12:27:11;-0.40;99.90
45715;DHT22;31430;61.646;24.704;2022-12-18T12:35:03;-0.40;99.90
45715;DHT22;31430;61.646;24.704;2022-12-18T12:40:32;-0.50;99.90
45715;DHT22;31430;61.646;24.704;2022-12-18T12:43:42;-0.50;99.90
45715;DHT22;31430;61.646;24.704;2022-12-18T12:46:12;-0.50;99.90
45715;DHT22;31430;61.646;24.704;2022-12-18T12:51:32;-0.40;99.90
45715;DHT22;31430;61.646;24.704;2022-12-18T12:54:00;-0.40;99.90
45715;DHT22;31430;61.646;24.704;2022-12-18T12:57:19;-0.40;99.90
45715;DHT22;31430;61.646;24.704;2022-12-18T12:59:44;-0.30;99.90
45715;DHT22;31430;61.646;24.704;2022-12-18T13:07:52;-0.30;99.90
45715;DHT22;31430;61.646;24.704;2022-12-18T13:12:58;-0.30;99.90
45715;DHT22;31430;61.646;24.704;2022-12-18T13:20:36;-0.20;99.90
45715;DHT22;31430;61.646;24.704;2022-12-18T13:36:48;0.00;99.90
45715;DHT22;31430;61.646;24.704;2022-12-18T13:41:40;0.00;99.90
45715;DHT22;31430;61.646;24.704;2022-12-18T13:46:51;0.00;99.90
45715;DHT22;31430;61.646;24.704;2022-12-18T13:52:01;0.00;99.90
45715;DHT22;31430;61.646;24.704;2022-12-18T13:57:00;0.00;99.90
45715;DHT22;31430;61.646;24.704;2022-12-18T13:59:32;0.00;99.90
45715;DHT22;31430;61.646;24.704;2022-12-18T14:02:04;0.10;99.90
45715;DHT22;31430;61.646;24.704;2022-12-18T14:04:35;0.10;99.90
45715;DHT22;31430;61.646;24.704;2022-12-18T14:07:15;0.10;99.90
45715;DHT22;31430;61.646;24.704;2022-12-18T14:09:59;0.10;99.90
45715;DHT22;31430;61.646;24.704;2022-12-18T14:12:28;0.10;99.90
45715;DHT22;31430;61.646;24.704;2022-12-18T14:17:45;0.20;99.90
45715;DHT22;31430;61.646;24.704;2022-12-18T14:20:15;0.20;99.90
45715;DHT22;31430;61.646;24.704;2022-12-18T14:22:47;0.10;99.90
45715;DHT22;31430;61.646;24.704;2022-12-18T14:25:22;0.20;99.90
45715;DHT22;31430;61.646;24.704;2022-12-18T14:30:49;0.10;99.90
45715;DHT22;31430;61.646;24.704;2022-12-18T14:33:21;0.20;99.90
45715;DHT22;31430;61.646;24.704;2022-12-18T14:35:59;0.10;99.90
45715;DHT22;31430;61.646;24.704;2022-12-18T14:38:36;0.10;99.90
45715;DHT22;31430;61.646;24.704;2022-12-18T14:43:33;0.20;99.90
45715;DHT22;31430;61.646;24.704;2022-12-18T14:46:02;0.20;99.90
45715;DHT22;31430;61.646;24.704;2022-12-18T14:48:41;0.20;99.90
45715;DHT22;31430;61.646;24.704;2022-12-18T14:53:39;0.20;99.90
45715;DHT22;31430;61.646;24.704;2022-12-18T14:56:20;0.10;99.90
45715;DHT22;31430;61.646;24.704;2022-12-18T14:58:54;0.20;99.90
45715;DHT22;31430;61.646;24.704;2022-12-18T15:01:23;0.20;99.90
45715;DHT22;31430;61.646;24.704;2022-12-18T15:03:51;0.20;99.90
45715;DHT22;31430;61.646;24.704;2022-12-18T15:08:56;0.20;99.90
45715;DHT22;31430;61.646;24.704;2022-12-18T15:17:23;0.20;99.90
45715;DHT22;31430;61.646;24.704;2022-12-18T15:19:51;0.20;99.90
45715;DHT22;31430;61.646;24.704;2022-12-18T15:24:45;0.20;99.90
45715;DHT22;31430;61.646;24.704;2022-12-18T15:32:33;0.20;99.90
45715;DHT22;31430;61.646;24.704;2022-12-18T15:35:12;0.20;99.90
45715;DHT22;31430;61.646;24.704;2022-12-18T15:37:39;0.20;99.90
45715;DHT22;31430;61.646;24.704;2022-12-18T15:40:05;0.20;99.90
45715;DHT22;31430;61.646;24.704;2022-12-18T15:42:31;0.20;99.90
45715;DHT22;31430;61.646;24.704;2022-12-18T15:45:16;0.20;99.90
45715;DHT22;31430;61.646;24.704;2022-12-18T15:47:41;0.20;99.90
45715;DHT22;31430;61.646;24.704;2022-12-18T15:50:08;0.20;99.90
45715;DHT22;31430;61.646;24.704;2022-12-18T15:52:40;0.20;99.90
45715;DHT22;31430;61.646;24.704;2022-12-18T15:55:13;0.10;99.90
45715;DHT22;31430;61.646;24.704;2022-12-18T15:57:58;0.20;99.90
45715;DHT22;31430;61.646;24.704;2022-12-18T16:00:24;0.20;99.90
45715;DHT22;31430;61.646;24.704;2022-12-18T16:02:49;0.20;99.90
45715;DHT22;31430;61.646;24.704;2022-12-18T16:05:16;0.10;99.90
45715;DHT22;31430;61.646;24.704;2022-12-18T16:07:43;0.20;99.90
45715;DHT22;31430;61.646;24.704;2022-12-18T16:10:09;0.10;99.90
45715;DHT22;31430;61.646;24.704;2022-12-18T16:12:35;0.10;99.90
45715;DHT22;31430;61.646;24.704;2022-12-18T16:15:01;0.10;99.90
45715;DHT22;31430;61.646;24.704;2022-12-18T16:17:27;0.20;99.90
45715;DHT22;31430;61.646;24.704;2022-12-18T16:19:52;0.20;99.90
45715;DHT22;31430;61.646;24.704;2022-12-18T16:22:20;0.20;99.90
45715;DHT22;31430;61.646;24.704;2022-12-18T16:24:46;0.20;99.90
45715;DHT22;31430;61.646;24.704;2022-12-18T16:27:12;0.20;99.90
45715;DHT22;31430;61.646;24.704;2022-12-18T16:29:37;0.20;99.90
45715;DHT22;31430;61.646;24.704;2022-12-18T16:32:03;0.20;99.90
45715;DHT22;31430;61.646;24.704;2022-12-18T16:34:31;0.20;99.90
45715;DHT22;31430;61.646;24.704;2022-12-18T16:37:04;0.20;99.90
45715;DHT22;31430;61.646;24.704;2022-12-18T16:39:30;0.20;99.90
45715;DHT22;31430;61.646;24.704;2022-12-18T16:41:56;0.20;99.90
45715;DHT22;31430;61.646;24.704;2022-12-18T16:44:22;0.30;99.90
45715;DHT22;31430;61.646;24.704;2022-12-18T16:46:48;0.20;99.90
45715;DHT22;31430;61.646;24.704;2022-12-18T16:49:17;0.30;99.90
45715;DHT22;31430;61.646;24.704;2022-12-18T16:51:45;0.30;99.90
45715;DHT22;31430;61.646;24.704;2022-12-18T16:54:11;0.20;99.90
45715;DHT22;31430;61.646;24.704;2022-12-18T16:56:36;0.30;99.90
45715;DHT22;31430;61.646;24.704;2022-12-18T16:59:03;0.30;99.90
45715;DHT22;31430;61.646;24.704;2022-12-18T17:01:30;0.30;99.90
45715;DHT22;31430;61.646;24.704;2022-12-18T17:03:58;0.30;99.90
45715;DHT22;31430;61.646;24.704;2022-12-18T17:06:25;0.30;99.90
45715;DHT22;31430;61.646;24.704;2022-12-18T17:08:56;0.30;99.90
45715;DHT22;31430;61.646;24.704;2022-12-18T17:11:23;0.30;99.90
45715;DHT22;31430;61.646;24.704;2022-12-18T17:13:50;0.30;99.90
45715;DHT22;31430;61.646;24.704;2022-12-18T17:16:15;0.30;99.90
45715;DHT22;31430;61.646;24.704;2022-12-18T17:18:42;0.30;99.90
45715;DHT22;31430;61.646;24.704;2022-12-18T17:21:09;0.30;99.90
45715;DHT22;31430;61.646;24.704;2022-12-18T17:23:35;0.40;99.90
45715;DHT22;31430;61.646;24.704;2022-12-18T17:26:03;0.30;99.90
45715;DHT22;31430;61.646;24.704;2022-12-18T17:28:29;0.40;99.90
45715;DHT22;31430;61.646;24.704;2022-12-18T17:30:55;0.40;99.90
45715;DHT22;31430;61.646;24.704;2022-12-18T17:33:21;0.40;99.90
45715;DHT22;31430;61.646;24.704;2022-12-18T17:35:47;0.30;99.90
45715;DHT22;31430;61.646;24.704;2022-12-18T17:38:13;0.40;99.90
45715;DHT22;31430;61.646;24.704;2022-12-18T17:40:39;0.30;99.90
45715;DHT22;31430;61.646;24.704;2022-12-18T17:43:05;0.30;99.90
45715;DHT22;31430;61.646;24.704;2022-12-18T17:45:34;0.40;99.90
45715;DHT22;31430;61.646;24.704;2022-12-18T17:48:01;0.30;99.90
45715;DHT22;31430;61.646;24.704;2022-12-18T17:50:26;0.30;99.90
45715;DHT22;31430;61.646;24.704;2022-12-18T17:52:55;0.40;99.90
45715;DHT22;31430;61.646;24.704;2022-12-18T17:55:21;0.40;99.90
45715;DHT22;31430;61.646;24.704;2022-12-18T17:57:47;0.40;99.90
45715;DHT22;31430;61.646;24.704;2022-12-18T18:00:13;0.40;99.90
45715;DHT22;31430;61.646;24.704;2022-12-18T18:02:39;0.40;99.90
45715;DHT22;31430;61.646;24.704;2022-12-18T18:05:05;0.40;99.90
45715;DHT22;31430;61.646;24.704;2022-12-18T18:07:31;0.40;99.90
45715;DHT22;31430;61.646;24.704;2022-12-18T18:09:58;0.40;99.90
45715;DHT22;31430;61.646;24.704;2022-12-18T18:12:24;0.40;99.90